sensor_id;sensor_type;location;lat;lon;timestamp;P1;durP1;ratioP1;P2;durP2;ratioP2
51288;SDS011;37372;52.294;5.152;2023-01-19T00:00:10;1.30;;;0.40;;
51288;SDS011;37372;52.294;5.152;2023-01-19T00:02:37;1.80;;;0.30;;
51288;SDS011;37372;52.294;5.152;2023-01-19T00:05:05;2.78;;;0.30;;
51288;SDS011;37372;52.294;5.152;2023-01-19T00:07:32;1.95;;;0.38;;
51288;SDS011;37372;52.294;5.152;2023-01-19T00:09:58;1.55;;;0.40;;
51288;SDS011;37372;52.294;5.152;2023-01-19T00:12:24;6.32;;;0.60;;
51288;SDS011;37372;52.294;5.152;2023-01-19T00:14:50;0.95;;;0.20;;
51288;SDS011;37372;52.294;5.152;2023-01-19T00:17:15;0.52;;;0.20;;
51288;SDS011;37372;52.294;5.152;2023-01-19T00:19:41;3.15;;;0.73;;
51288;SDS011;37372;52.294;5.152;2023-01-19T00:22:06;2.53;;;0.70;;
51288;SDS011;37372;52.294;5.152;2023-01-19T00:24:32;4.25;;;0.57;;
51288;SDS011;37372;52.294;5.152;2023-01-19T00:26:57;2.70;;;0.30;;
51288;SDS011;37372;52.294;5.152;2023-01-19T00:29:24;5.40;;;0.50;;
51288;SDS011;37372;52.294;5.152;2023-01-19T00:31:49;5.40;;;0.50;;
51288;SDS011;37372;52.294;5.152;2023-01-19T00:34:15;6.03;;;0.70;;
51288;SDS011;37372;52.294;5.152;2023-01-19T00:36:40;2.28;;;0.70;;
51288;SDS011;37372;52.294;5.152;2023-01-19T00:39:06;5.50;;;0.70;;
51288;SDS011;37372;52.294;5.152;2023-01-19T00:41:31;1.38;;;0.73;;
51288;SDS011;37372;52.294;5.152;2023-01-19T00:44:15;2.03;;;0.50;;
51288;SDS011;37372;52.294;5.152;2023-01-19T00:46:41;3.17;;;0.38;;
51288;SDS011;37372;52.294;5.152;2023-01-19T00:49:06;3.22;;;0.47;;
51288;SDS011;37372;52.294;5.152;2023-01-19T00:51:31;2.35;;;0.63;;
51288;SDS011;37372;52.294;5.152;2023-01-19T00:53:57;2.35;;;0.40;;
51288;SDS011;37372;52.294;5.152;2023-01-19T00:56:28;0.85;;;0.20;;
51288;SDS011;37372;52.294;5.152;2023-01-19T00:58:56;1.73;;;0.45;;
51288;SDS011;37372;52.294;5.152;2023-01-19T01:01:22;1.02;;;0.20;;
51288;SDS011;37372;52.294;5.152;2023-01-19T01:03:47;1.55;;;0.30;;
51288;SDS011;37372;52.294;5.152;2023-01-19T01:06:13;1.75;;;0.15;;
51288;SDS011;37372;52.294;5.152;2023-01-19T01:08:38;3.38;;;1.33;;
51288;SDS011;37372;52.294;5.152;2023-01-19T01:11:03;2.90;;;0.50;;
51288;SDS011;37372;52.294;5.152;2023-01-19T01:13:29;1.25;;;1.05;;
51288;SDS011;37372;52.294;5.152;2023-01-19T01:15:55;0.35;;;0.20;;
51288;SDS011;37372;52.294;5.152;2023-01-19T01:18:21;2.63;;;0.30;;
51288;SDS011;37372;52.294;5.152;2023-01-19T01:20:47;3.28;;;0.50;;
51288;SDS011;37372;52.294;5.152;2023-01-19T01:23:13;3.40;;;1.15;;
51288;SDS011;37372;52.294;5.152;2023-01-19T01:25:38;1.35;;;0.30;;
51288;SDS011;37372;52.294;5.152;2023-01-19T01:28:04;2.28;;;0.65;;
51288;SDS011;37372;52.294;5.152;2023-01-19T01:30:32;5.25;;;0.65;;
51288;SDS011;37372;52.294;5.152;2023-01-19T01:32:58;3.83;;;0.52;;
51288;SDS011;37372;52.294;5.152;2023-01-19T01:35:23;12.65;;;0.95;;
51288;SDS011;37372;52.294;5.152;2023-01-19T01:37:49;2.08;;;0.47;;
51288;SDS011;37372;52.294;5.152;2023-01-19T01:40:15;4.80;;;0.90;;
51288;SDS011;37372;52.294;5.152;2023-01-19T01:42:42;4.80;;;0.90;;
51288;SDS011;37372;52.294;5.152;2023-01-19T01:48:22;13.15;;;1.83;;
51288;SDS011;37372;52.294;5.152;2023-01-19T01:50:58;10.93;;;1.15;;
51288;SDS011;37372;52.294;5.152;2023-01-19T01:56:38;12.88;;;1.70;;
51288;SDS011;37372;52.294;5.152;2023-01-19T01:59:08;6.00;;;0.90;;
51288;SDS011;37372;52.294;5.152;2023-01-19T02:01:50;8.88;;;1.33;;
51288;SDS011;37372;52.294;5.152;2023-01-19T02:04:37;12.40;;;0.88;;
51288;SDS011;37372;52.294;5.152;2023-01-19T02:07:09;7.70;;;1.70;;
51288;SDS011;37372;52.294;5.152;2023-01-19T02:09:57;6.93;;;1.27;;
51288;SDS011;37372;52.294;5.152;2023-01-19T02:12:41;9.35;;;1.08;;
51288;SDS011;37372;52.294;5.152;2023-01-19T02:15:25;12.93;;;2.17;;
51288;SDS011;37372;52.294;5.152;2023-01-19T02:17:50;7.28;;;1.05;;
51288;SDS011;37372;52.294;5.152;2023-01-19T02:20:16;12.02;;;1.33;;
51288;SDS011;37372;52.294;5.152;2023-01-19T02:22:46;4.45;;;0.75;;
51288;SDS011;37372;52.294;5.152;2023-01-19T02:25:13;5.47;;;0.90;;
51288;SDS011;37372;52.294;5.152;2023-01-19T02:27:40;12.90;;;2.58;;
51288;SDS011;37372;52.294;5.152;2023-01-19T02:30:06;6.13;;;0.63;;
51288;SDS011;37372;52.294;5.152;2023-01-19T02:32:33;1.75;;;0.50;;
51288;SDS011;37372;52.294;5.152;2023-01-19T02:34:59;7.63;;;0.75;;
51288;SDS011;37372;52.294;5.152;2023-01-19T02:37:25;9.02;;;1.75;;
51288;SDS011;37372;52.294;5.152;2023-01-19T02:39:53;7.65;;;0.93;;
51288;SDS011;37372;52.294;5.152;2023-01-19T02:42:24;4.53;;;0.60;;
51288;SDS011;37372;52.294;5.152;2023-01-19T02:44:54;5.85;;;0.60;;
51288;SDS011;37372;52.294;5.152;2023-01-19T02:47:20;5.50;;;0.52;;
51288;SDS011;37372;52.294;5.152;2023-01-19T02:49:58;2.50;;;0.70;;
51288;SDS011;37372;52.294;5.152;2023-01-19T02:52:25;5.25;;;0.43;;
51288;SDS011;37372;52.294;5.152;2023-01-19T02:55:03;5.53;;;0.70;;
51288;SDS011;37372;52.294;5.152;2023-01-19T03:00:46;6.43;;;0.52;;
51288;SDS011;37372;52.294;5.152;2023-01-19T03:03:22;6.55;;;0.57;;
51288;SDS011;37372;52.294;5.152;2023-01-19T03:06:01;5.93;;;0.95;;
51288;SDS011;37372;52.294;5.152;2023-01-19T03:08:30;6.78;;;0.75;;
51288;SDS011;37372;52.294;5.152;2023-01-19T03:11:17;4.90;;;1.13;;
51288;SDS011;37372;52.294;5.152;2023-01-19T03:13:48;17.92;;;3.75;;
51288;SDS011;37372;52.294;5.152;2023-01-19T03:16:26;18.88;;;2.53;;
51288;SDS011;37372;52.294;5.152;2023-01-19T03:19:00;20.58;;;1.73;;
51288;SDS011;37372;52.294;5.152;2023-01-19T03:21:32;14.27;;;1.40;;
51288;SDS011;37372;52.294;5.152;2023-01-19T03:24:00;8.07;;;1.17;;
51288;SDS011;37372;52.294;5.152;2023-01-19T03:26:29;11.23;;;1.30;;
51288;SDS011;37372;52.294;5.152;2023-01-19T03:28:59;6.70;;;1.15;;
51288;SDS011;37372;52.294;5.152;2023-01-19T03:31:27;11.23;;;1.23;;
51288;SDS011;37372;52.294;5.152;2023-01-19T03:33:58;7.70;;;1.05;;
51288;SDS011;37372;52.294;5.152;2023-01-19T03:39:08;6.72;;;0.73;;
51288;SDS011;37372;52.294;5.152;2023-01-19T03:41:36;9.35;;;0.70;;
51288;SDS011;37372;52.294;5.152;2023-01-19T03:44:05;3.95;;;0.50;;
51288;SDS011;37372;52.294;5.152;2023-01-19T03:46:31;11.55;;;0.82;;
51288;SDS011;37372;52.294;5.152;2023-01-19T03:48:58;4.65;;;0.65;;
51288;SDS011;37372;52.294;5.152;2023-01-19T03:51:24;10.88;;;1.67;;
51288;SDS011;37372;52.294;5.152;2023-01-19T03:53:50;8.68;;;1.50;;
51288;SDS011;37372;52.294;5.152;2023-01-19T03:56:22;5.95;;;1.67;;
51288;SDS011;37372;52.294;5.152;2023-01-19T03:58:49;3.38;;;0.68;;
51288;SDS011;37372;52.294;5.152;2023-01-19T04:01:15;5.78;;;1.63;;
51288;SDS011;37372;52.294;5.152;2023-01-19T04:03:41;6.05;;;0.77;;
51288;SDS011;37372;52.294;5.152;2023-01-19T04:06:07;5.30;;;1.00;;
51288;SDS011;37372;52.294;5.152;2023-01-19T04:08:34;18.90;;;1.92;;
51288;SDS011;37372;52.294;5.152;2023-01-19T04:11:00;6.07;;;1.52;;
51288;SDS011;37372;52.294;5.152;2023-01-19T04:13:26;6.63;;;0.77;;
51288;SDS011;37372;52.294;5.152;2023-01-19T04:15:53;6.75;;;1.00;;
51288;SDS011;37372;52.294;5.152;2023-01-19T04:18:20;8.27;;;0.75;;
51288;SDS011;37372;52.294;5.152;2023-01-19T04:20:45;8.93;;;1.30;;
51288;SDS011;37372;52.294;5.152;2023-01-19T04:23:10;5.13;;;0.85;;
51288;SDS011;37372;52.294;5.152;2023-01-19T04:25:36;10.38;;;1.27;;
51288;SDS011;37372;52.294;5.152;2023-01-19T04:28:01;2.90;;;0.77;;
51288;SDS011;37372;52.294;5.152;2023-01-19T04:30:27;3.40;;;0.60;;
51288;SDS011;37372;52.294;5.152;2023-01-19T04:32:52;10.02;;;1.10;;
51288;SDS011;37372;52.294;5.152;2023-01-19T04:35:19;7.38;;;0.80;;
51288;SDS011;37372;52.294;5.152;2023-01-19T04:37:46;8.48;;;0.98;;
51288;SDS011;37372;52.294;5.152;2023-01-19T04:40:11;3.80;;;0.70;;
51288;SDS011;37372;52.294;5.152;2023-01-19T04:42:37;8.50;;;1.23;;
51288;SDS011;37372;52.294;5.152;2023-01-19T04:45:02;6.57;;;1.42;;
51288;SDS011;37372;52.294;5.152;2023-01-19T04:47:28;4.35;;;0.85;;
51288;SDS011;37372;52.294;5.152;2023-01-19T04:49:53;3.42;;;0.70;;
51288;SDS011;37372;52.294;5.152;2023-01-19T04:52:18;7.95;;;0.70;;
51288;SDS011;37372;52.294;5.152;2023-01-19T04:54:44;7.03;;;1.05;;
51288;SDS011;37372;52.294;5.152;2023-01-19T04:57:09;10.07;;;1.95;;
51288;SDS011;37372;52.294;5.152;2023-01-19T04:59:35;9.90;;;1.70;;
51288;SDS011;37372;52.294;5.152;2023-01-19T05:02:00;13.52;;;1.50;;
51288;SDS011;37372;52.294;5.152;2023-01-19T05:04:25;12.50;;;1.30;;
51288;SDS011;37372;52.294;5.152;2023-01-19T05:06:51;16.17;;;2.25;;
51288;SDS011;37372;52.294;5.152;2023-01-19T05:09:18;12.18;;;1.77;;
51288;SDS011;37372;52.294;5.152;2023-01-19T05:11:43;13.93;;;2.17;;
51288;SDS011;37372;52.294;5.152;2023-01-19T05:14:09;24.83;;;2.40;;
51288;SDS011;37372;52.294;5.152;2023-01-19T05:16:38;20.92;;;4.15;;
51288;SDS011;37372;52.294;5.152;2023-01-19T05:19:03;21.50;;;2.35;;
51288;SDS011;37372;52.294;5.152;2023-01-19T05:21:29;14.75;;;1.73;;
51288;SDS011;37372;52.294;5.152;2023-01-19T05:23:54;10.73;;;2.03;;
51288;SDS011;37372;52.294;5.152;2023-01-19T05:26:20;16.95;;;2.13;;
51288;SDS011;37372;52.294;5.152;2023-01-19T05:28:46;16.17;;;4.03;;
51288;SDS011;37372;52.294;5.152;2023-01-19T05:31:11;17.08;;;3.10;;
51288;SDS011;37372;52.294;5.152;2023-01-19T05:33:36;17.73;;;2.67;;
51288;SDS011;37372;52.294;5.152;2023-01-19T05:36:02;17.90;;;2.55;;
51288;SDS011;37372;52.294;5.152;2023-01-19T05:38:28;23.33;;;3.03;;
51288;SDS011;37372;52.294;5.152;2023-01-19T05:40:57;14.52;;;2.35;;
51288;SDS011;37372;52.294;5.152;2023-01-19T05:43:23;16.23;;;2.17;;
51288;SDS011;37372;52.294;5.152;2023-01-19T05:45:51;14.48;;;2.20;;
51288;SDS011;37372;52.294;5.152;2023-01-19T05:48:16;14.77;;;2.40;;
51288;SDS011;37372;52.294;5.152;2023-01-19T05:50:42;19.25;;;1.80;;
51288;SDS011;37372;52.294;5.152;2023-01-19T05:53:07;17.98;;;1.92;;
51288;SDS011;37372;52.294;5.152;2023-01-19T05:55:33;9.65;;;1.77;;
51288;SDS011;37372;52.294;5.152;2023-01-19T05:57:58;19.55;;;3.30;;
51288;SDS011;37372;52.294;5.152;2023-01-19T06:00:23;15.55;;;3.42;;
51288;SDS011;37372;52.294;5.152;2023-01-19T06:02:51;14.88;;;2.47;;
51288;SDS011;37372;52.294;5.152;2023-01-19T06:05:16;12.82;;;1.85;;
51288;SDS011;37372;52.294;5.152;2023-01-19T06:07:42;19.10;;;2.35;;
51288;SDS011;37372;52.294;5.152;2023-01-19T06:10:07;14.98;;;2.22;;
51288;SDS011;37372;52.294;5.152;2023-01-19T06:12:33;19.05;;;2.53;;
51288;SDS011;37372;52.294;5.152;2023-01-19T06:14:59;16.55;;;2.17;;
51288;SDS011;37372;52.294;5.152;2023-01-19T06:17:27;21.10;;;2.72;;
51288;SDS011;37372;52.294;5.152;2023-01-19T06:19:52;22.58;;;1.88;;
51288;SDS011;37372;52.294;5.152;2023-01-19T06:22:18;14.68;;;3.05;;
51288;SDS011;37372;52.294;5.152;2023-01-19T06:24:43;14.10;;;2.50;;
51288;SDS011;37372;52.294;5.152;2023-01-19T06:27:08;18.88;;;2.20;;
51288;SDS011;37372;52.294;5.152;2023-01-19T06:29:35;13.27;;;2.42;;
51288;SDS011;37372;52.294;5.152;2023-01-19T06:32:00;13.07;;;2.97;;
51288;SDS011;37372;52.294;5.152;2023-01-19T06:34:26;16.02;;;2.35;;
51288;SDS011;37372;52.294;5.152;2023-01-19T06:36:55;24.13;;;4.75;;
51288;SDS011;37372;52.294;5.152;2023-01-19T06:39:20;16.13;;;2.75;;
51288;SDS011;37372;52.294;5.152;2023-01-19T06:41:46;20.20;;;3.88;;
51288;SDS011;37372;52.294;5.152;2023-01-19T06:44:11;18.20;;;2.50;;
51288;SDS011;37372;52.294;5.152;2023-01-19T06:46:43;10.57;;;2.90;;
51288;SDS011;37372;52.294;5.152;2023-01-19T06:49:08;12.73;;;2.72;;
51288;SDS011;37372;52.294;5.152;2023-01-19T06:51:34;15.05;;;2.30;;
51288;SDS011;37372;52.294;5.152;2023-01-19T06:53:59;12.38;;;1.40;;
51288;SDS011;37372;52.294;5.152;2023-01-19T06:56:25;18.77;;;2.10;;
51288;SDS011;37372;52.294;5.152;2023-01-19T06:58:50;21.80;;;2.78;;
51288;SDS011;37372;52.294;5.152;2023-01-19T07:01:17;13.75;;;1.38;;
51288;SDS011;37372;52.294;5.152;2023-01-19T07:03:43;14.75;;;2.08;;
51288;SDS011;37372;52.294;5.152;2023-01-19T07:06:08;14.40;;;1.60;;
51288;SDS011;37372;52.294;5.152;2023-01-19T07:08:34;20.65;;;3.65;;
51288;SDS011;37372;52.294;5.152;2023-01-19T07:11:04;7.85;;;1.83;;
51288;SDS011;37372;52.294;5.152;2023-01-19T07:13:32;17.70;;;1.58;;
51288;SDS011;37372;52.294;5.152;2023-01-19T07:16:02;13.88;;;2.35;;
51288;SDS011;37372;52.294;5.152;2023-01-19T07:18:32;11.55;;;1.70;;
51288;SDS011;37372;52.294;5.152;2023-01-19T07:20:57;10.77;;;1.45;;
51288;SDS011;37372;52.294;5.152;2023-01-19T07:23:23;20.77;;;3.03;;
51288;SDS011;37372;52.294;5.152;2023-01-19T07:25:49;14.57;;;2.42;;
51288;SDS011;37372;52.294;5.152;2023-01-19T07:28:14;13.05;;;2.08;;
51288;SDS011;37372;52.294;5.152;2023-01-19T07:30:41;13.63;;;1.70;;
51288;SDS011;37372;52.294;5.152;2023-01-19T07:33:07;17.48;;;1.77;;
51288;SDS011;37372;52.294;5.152;2023-01-19T07:35:33;10.88;;;0.90;;
51288;SDS011;37372;52.294;5.152;2023-01-19T07:37:58;13.57;;;2.65;;
51288;SDS011;37372;52.294;5.152;2023-01-19T07:40:24;15.75;;;2.28;;
51288;SDS011;37372;52.294;5.152;2023-01-19T07:42:50;17.63;;;2.97;;
51288;SDS011;37372;52.294;5.152;2023-01-19T07:45:16;12.60;;;2.13;;
51288;SDS011;37372;52.294;5.152;2023-01-19T07:47:44;14.32;;;1.73;;
51288;SDS011;37372;52.294;5.152;2023-01-19T07:50:12;13.68;;;1.80;;
51288;SDS011;37372;52.294;5.152;2023-01-19T07:52:38;13.70;;;2.13;;
51288;SDS011;37372;52.294;5.152;2023-01-19T07:55:04;16.80;;;2.90;;
51288;SDS011;37372;52.294;5.152;2023-01-19T07:57:30;12.95;;;1.88;;
51288;SDS011;37372;52.294;5.152;2023-01-19T07:59:55;18.35;;;1.67;;
51288;SDS011;37372;52.294;5.152;2023-01-19T08:02:21;8.80;;;1.65;;
51288;SDS011;37372;52.294;5.152;2023-01-19T08:04:47;12.98;;;1.85;;
51288;SDS011;37372;52.294;5.152;2023-01-19T08:07:12;12.63;;;2.30;;
51288;SDS011;37372;52.294;5.152;2023-01-19T08:09:38;9.13;;;2.47;;
51288;SDS011;37372;52.294;5.152;2023-01-19T08:12:04;18.45;;;2.55;;
51288;SDS011;37372;52.294;5.152;2023-01-19T08:14:29;16.55;;;1.85;;
51288;SDS011;37372;52.294;5.152;2023-01-19T08:16:58;6.20;;;1.27;;
51288;SDS011;37372;52.294;5.152;2023-01-19T08:19:27;10.40;;;1.25;;
51288;SDS011;37372;52.294;5.152;2023-01-19T08:21:53;8.70;;;1.70;;
51288;SDS011;37372;52.294;5.152;2023-01-19T08:24:19;13.25;;;1.50;;
51288;SDS011;37372;52.294;5.152;2023-01-19T08:26:47;17.40;;;2.00;;
51288;SDS011;37372;52.294;5.152;2023-01-19T08:29:13;7.72;;;3.00;;
51288;SDS011;37372;52.294;5.152;2023-01-19T08:31:39;10.10;;;1.42;;
51288;SDS011;37372;52.294;5.152;2023-01-19T08:34:04;13.02;;;1.95;;
51288;SDS011;37372;52.294;5.152;2023-01-19T08:36:30;18.35;;;2.20;;
51288;SDS011;37372;52.294;5.152;2023-01-19T08:38:55;14.90;;;2.10;;
51288;SDS011;37372;52.294;5.152;2023-01-19T08:41:21;11.63;;;1.90;;
51288;SDS011;37372;52.294;5.152;2023-01-19T08:43:47;16.30;;;2.22;;
51288;SDS011;37372;52.294;5.152;2023-01-19T08:46:13;12.23;;;3.10;;
51288;SDS011;37372;52.294;5.152;2023-01-19T08:48:44;11.80;;;1.30;;
51288;SDS011;37372;52.294;5.152;2023-01-19T08:51:12;9.93;;;1.73;;
51288;SDS011;37372;52.294;5.152;2023-01-19T08:53:39;7.70;;;2.55;;
51288;SDS011;37372;52.294;5.152;2023-01-19T08:56:05;3.70;;;1.13;;
51288;SDS011;37372;52.294;5.152;2023-01-19T08:58:38;11.40;;;1.88;;
51288;SDS011;37372;52.294;5.152;2023-01-19T09:01:05;11.13;;;2.42;;
51288;SDS011;37372;52.294;5.152;2023-01-19T09:03:31;14.27;;;4.40;;
51288;SDS011;37372;52.294;5.152;2023-01-19T09:05:57;18.52;;;5.25;;
51288;SDS011;37372;52.294;5.152;2023-01-19T09:08:22;12.50;;;1.92;;
51288;SDS011;37372;52.294;5.152;2023-01-19T09:10:48;11.85;;;2.63;;
51288;SDS011;37372;52.294;5.152;2023-01-19T09:13:15;7.72;;;1.13;;
51288;SDS011;37372;52.294;5.152;2023-01-19T09:15:42;12.23;;;1.35;;
51288;SDS011;37372;52.294;5.152;2023-01-19T09:18:09;9.55;;;1.95;;
51288;SDS011;37372;52.294;5.152;2023-01-19T09:20:38;12.02;;;2.38;;
51288;SDS011;37372;52.294;5.152;2023-01-19T09:23:06;5.65;;;1.52;;
51288;SDS011;37372;52.294;5.152;2023-01-19T09:25:35;7.00;;;1.38;;
51288;SDS011;37372;52.294;5.152;2023-01-19T09:28:05;9.77;;;1.77;;
51288;SDS011;37372;52.294;5.152;2023-01-19T09:30:32;11.05;;;1.45;;
51288;SDS011;37372;52.294;5.152;2023-01-19T09:33:11;6.25;;;1.35;;
51288;SDS011;37372;52.294;5.152;2023-01-19T09:35:39;12.20;;;1.20;;
51288;SDS011;37372;52.294;5.152;2023-01-19T09:38:06;9.45;;;1.05;;
51288;SDS011;37372;52.294;5.152;2023-01-19T09:40:33;19.08;;;5.15;;
51288;SDS011;37372;52.294;5.152;2023-01-19T09:45:38;6.07;;;1.75;;
51288;SDS011;37372;52.294;5.152;2023-01-19T09:48:19;8.98;;;1.35;;
51288;SDS011;37372;52.294;5.152;2023-01-19T09:50:55;10.10;;;2.85;;
51288;SDS011;37372;52.294;5.152;2023-01-19T09:54:10;8.60;;;1.15;;
51288;SDS011;37372;52.294;5.152;2023-01-19T09:56:16;14.00;;;1.35;;
51288;SDS011;37372;52.294;5.152;2023-01-19T09:58:43;11.70;;;1.80;;
51288;SDS011;37372;52.294;5.152;2023-01-19T10:01:19;5.63;;;1.20;;
51288;SDS011;37372;52.294;5.152;2023-01-19T10:06:50;3.50;;;1.05;;
51288;SDS011;37372;52.294;5.152;2023-01-19T10:09:25;10.02;;;3.40;;
51288;SDS011;37372;52.294;5.152;2023-01-19T10:12:00;5.05;;;1.77;;
51288;SDS011;37372;52.294;5.152;2023-01-19T10:14:39;7.10;;;1.00;;
51288;SDS011;37372;52.294;5.152;2023-01-19T10:20:02;6.55;;;1.73;;
51288;SDS011;37372;52.294;5.152;2023-01-19T10:22:28;5.97;;;1.30;;
51288;SDS011;37372;52.294;5.152;2023-01-19T10:24:54;12.15;;;1.35;;
51288;SDS011;37372;52.294;5.152;2023-01-19T10:27:23;4.65;;;1.23;;
51288;SDS011;37372;52.294;5.152;2023-01-19T10:29:56;13.73;;;1.33;;
51288;SDS011;37372;52.294;5.152;2023-01-19T10:32:22;9.00;;;1.42;;
51288;SDS011;37372;52.294;5.152;2023-01-19T10:34:50;7.50;;;1.40;;
51288;SDS011;37372;52.294;5.152;2023-01-19T10:39:45;8.45;;;0.80;;
51288;SDS011;37372;52.294;5.152;2023-01-19T10:42:15;6.65;;;0.73;;
51288;SDS011;37372;52.294;5.152;2023-01-19T10:44:41;5.25;;;0.88;;
51288;SDS011;37372;52.294;5.152;2023-01-19T10:47:19;7.72;;;0.77;;
51288;SDS011;37372;52.294;5.152;2023-01-19T10:49:45;5.78;;;1.02;;
51288;SDS011;37372;52.294;5.152;2023-01-19T10:55:04;13.30;;;1.00;;
51288;SDS011;37372;52.294;5.152;2023-01-19T10:57:35;3.78;;;0.98;;
51288;SDS011;37372;52.294;5.152;2023-01-19T11:00:06;2.97;;;0.77;;
51288;SDS011;37372;52.294;5.152;2023-01-19T11:02:53;5.60;;;0.70;;
51288;SDS011;37372;52.294;5.152;2023-01-19T11:05:22;9.00;;;0.77;;
51288;SDS011;37372;52.294;5.152;2023-01-19T11:07:49;10.63;;;1.15;;
51288;SDS011;37372;52.294;5.152;2023-01-19T11:12:41;10.65;;;1.30;;
51288;SDS011;37372;52.294;5.152;2023-01-19T11:15:20;8.20;;;1.58;;
51288;SDS011;37372;52.294;5.152;2023-01-19T11:17:47;6.00;;;1.88;;
51288;SDS011;37372;52.294;5.152;2023-01-19T11:20:21;4.05;;;1.70;;
51288;SDS011;37372;52.294;5.152;2023-01-19T11:25:38;5.38;;;0.90;;
51288;SDS011;37372;52.294;5.152;2023-01-19T11:28:05;3.67;;;0.63;;
51288;SDS011;37372;52.294;5.152;2023-01-19T11:30:52;8.45;;;1.25;;
51288;SDS011;37372;52.294;5.152;2023-01-19T11:33:42;9.52;;;1.10;;
51288;SDS011;37372;52.294;5.152;2023-01-19T11:36:14;2.90;;;0.70;;
51288;SDS011;37372;52.294;5.152;2023-01-19T11:38:46;4.07;;;0.93;;
51288;SDS011;37372;52.294;5.152;2023-01-19T11:43:51;3.42;;;1.05;;
51288;SDS011;37372;52.294;5.152;2023-01-19T11:46:19;5.78;;;0.90;;
51288;SDS011;37372;52.294;5.152;2023-01-19T11:51:48;4.45;;;1.08;;
51288;SDS011;37372;52.294;5.152;2023-01-19T11:54:28;4.50;;;0.80;;
51288;SDS011;37372;52.294;5.152;2023-01-19T11:56:58;7.60;;;1.90;;
51288;SDS011;37372;52.294;5.152;2023-01-19T11:59:24;6.95;;;1.50;;
51288;SDS011;37372;52.294;5.152;2023-01-19T12:01:54;6.30;;;0.98;;
51288;SDS011;37372;52.294;5.152;2023-01-19T12:06:54;3.30;;;0.98;;
51288;SDS011;37372;52.294;5.152;2023-01-19T12:09:25;14.15;;;1.80;;
51288;SDS011;37372;52.294;5.152;2023-01-19T12:11:59;13.65;;;1.30;;
51288;SDS011;37372;52.294;5.152;2023-01-19T12:14:33;8.02;;;1.45;;
51288;SDS011;37372;52.294;5.152;2023-01-19T12:17:06;4.38;;;0.90;;
51288;SDS011;37372;52.294;5.152;2023-01-19T12:19:40;6.97;;;1.40;;
51288;SDS011;37372;52.294;5.152;2023-01-19T12:22:10;7.25;;;1.48;;
51288;SDS011;37372;52.294;5.152;2023-01-19T12:24:40;5.47;;;1.08;;
51288;SDS011;37372;52.294;5.152;2023-01-19T12:29:58;7.63;;;1.85;;
51288;SDS011;37372;52.294;5.152;2023-01-19T12:32:33;10.07;;;1.85;;
51288;SDS011;37372;52.294;5.152;2023-01-19T12:35:00;3.63;;;1.05;;
51288;SDS011;37372;52.294;5.152;2023-01-19T12:39:58;7.15;;;1.20;;
51288;SDS011;37372;52.294;5.152;2023-01-19T12:42:26;7.93;;;1.10;;
51288;SDS011;37372;52.294;5.152;2023-01-19T12:45:03;6.25;;;1.15;;
51288;SDS011;37372;52.294;5.152;2023-01-19T12:47:37;3.15;;;1.15;;
51288;SDS011;37372;52.294;5.152;2023-01-19T12:50:06;5.05;;;1.15;;
51288;SDS011;37372;52.294;5.152;2023-01-19T12:52:41;10.55;;;1.35;;
51288;SDS011;37372;52.294;5.152;2023-01-19T12:55:22;8.13;;;1.17;;
51288;SDS011;37372;52.294;5.152;2023-01-19T13:03:02;11.57;;;1.48;;
51288;SDS011;37372;52.294;5.152;2023-01-19T13:05:52;8.88;;;2.17;;
51288;SDS011;37372;52.294;5.152;2023-01-19T13:08:22;4.97;;;1.20;;
51288;SDS011;37372;52.294;5.152;2023-01-19T13:15:48;8.77;;;1.77;;
51288;SDS011;37372;52.294;5.152;2023-01-19T13:20:49;4.60;;;1.00;;
51288;SDS011;37372;52.294;5.152;2023-01-19T13:23:18;6.03;;;1.05;;
51288;SDS011;37372;52.294;5.152;2023-01-19T13:25:53;5.20;;;0.88;;
51288;SDS011;37372;52.294;5.152;2023-01-19T13:28:32;5.28;;;1.05;;
51288;SDS011;37372;52.294;5.152;2023-01-19T13:31:03;3.42;;;0.52;;
51288;SDS011;37372;52.294;5.152;2023-01-19T13:33:31;3.53;;;0.60;;
51288;SDS011;37372;52.294;5.152;2023-01-19T13:36:01;6.57;;;1.05;;
51288;SDS011;37372;52.294;5.152;2023-01-19T13:38:27;7.68;;;1.27;;
51288;SDS011;37372;52.294;5.152;2023-01-19T13:40:53;3.25;;;0.95;;
51288;SDS011;37372;52.294;5.152;2023-01-19T13:43:23;5.35;;;1.52;;
51288;SDS011;37372;52.294;5.152;2023-01-19T13:45:52;8.10;;;1.40;;
51288;SDS011;37372;52.294;5.152;2023-01-19T13:48:19;3.05;;;1.00;;
51288;SDS011;37372;52.294;5.152;2023-01-19T13:50:55;6.53;;;1.27;;
51288;SDS011;37372;52.294;5.152;2023-01-19T13:53:22;4.07;;;1.20;;
51288;SDS011;37372;52.294;5.152;2023-01-19T13:56:04;6.35;;;1.00;;
51288;SDS011;37372;52.294;5.152;2023-01-19T13:58:30;7.20;;;1.17;;
51288;SDS011;37372;52.294;5.152;2023-01-19T14:00:56;4.90;;;1.20;;
51288;SDS011;37372;52.294;5.152;2023-01-19T14:03:21;4.18;;;1.02;;
51288;SDS011;37372;52.294;5.152;2023-01-19T14:05:49;9.32;;;1.45;;
51288;SDS011;37372;52.294;5.152;2023-01-19T14:08:16;5.50;;;1.40;;
51288;SDS011;37372;52.294;5.152;2023-01-19T14:13:32;4.75;;;1.52;;
51288;SDS011;37372;52.294;5.152;2023-01-19T14:16:05;12.40;;;1.33;;
51288;SDS011;37372;52.294;5.152;2023-01-19T14:18:36;4.78;;;1.10;;
51288;SDS011;37372;52.294;5.152;2023-01-19T14:21:03;2.63;;;1.02;;
51288;SDS011;37372;52.294;5.152;2023-01-19T14:31:40;4.97;;;0.70;;
51288;SDS011;37372;52.294;5.152;2023-01-19T14:34:32;3.67;;;0.70;;
51288;SDS011;37372;52.294;5.152;2023-01-19T14:39:46;6.00;;;1.50;;
51288;SDS011;37372;52.294;5.152;2023-01-19T14:42:27;2.33;;;0.95;;
51288;SDS011;37372;52.294;5.152;2023-01-19T14:44:59;5.88;;;0.80;;
51288;SDS011;37372;52.294;5.152;2023-01-19T14:49:53;12.90;;;1.17;;
51288;SDS011;37372;52.294;5.152;2023-01-19T14:52:27;3.00;;;0.60;;
51288;SDS011;37372;52.294;5.152;2023-01-19T14:54:56;10.10;;;3.17;;
51288;SDS011;37372;52.294;5.152;2023-01-19T14:57:23;11.27;;;1.35;;
51288;SDS011;37372;52.294;5.152;2023-01-19T14:59:48;5.63;;;1.45;;
51288;SDS011;37372;52.294;5.152;2023-01-19T15:02:14;7.10;;;1.35;;
51288;SDS011;37372;52.294;5.152;2023-01-19T15:04:42;10.73;;;1.95;;
51288;SDS011;37372;52.294;5.152;2023-01-19T15:07:11;7.10;;;1.65;;
51288;SDS011;37372;52.294;5.152;2023-01-19T15:09:41;3.78;;;1.02;;
51288;SDS011;37372;52.294;5.152;2023-01-19T15:12:07;9.30;;;1.30;;
51288;SDS011;37372;52.294;5.152;2023-01-19T15:14:37;7.90;;;1.17;;
51288;SDS011;37372;52.294;5.152;2023-01-19T15:17:02;7.30;;;1.58;;
51288;SDS011;37372;52.294;5.152;2023-01-19T15:19:27;9.68;;;2.10;;
51288;SDS011;37372;52.294;5.152;2023-01-19T15:21:53;6.10;;;0.88;;
51288;SDS011;37372;52.294;5.152;2023-01-19T15:24:18;5.60;;;0.85;;
51288;SDS011;37372;52.294;5.152;2023-01-19T15:26:44;4.60;;;2.20;;
51288;SDS011;37372;52.294;5.152;2023-01-19T15:29:14;5.07;;;1.20;;
51288;SDS011;37372;52.294;5.152;2023-01-19T15:31:50;5.22;;;1.27;;
51288;SDS011;37372;52.294;5.152;2023-01-19T15:34:16;3.72;;;1.00;;
51288;SDS011;37372;52.294;5.152;2023-01-19T15:36:42;5.47;;;1.40;;
51288;SDS011;37372;52.294;5.152;2023-01-19T15:39:08;6.10;;;0.77;;
51288;SDS011;37372;52.294;5.152;2023-01-19T15:41:36;7.55;;;1.52;;
51288;SDS011;37372;52.294;5.152;2023-01-19T15:44:03;8.23;;;1.42;;
51288;SDS011;37372;52.294;5.152;2023-01-19T15:46:30;7.75;;;1.92;;
51288;SDS011;37372;52.294;5.152;2023-01-19T15:48:56;6.13;;;1.48;;
51288;SDS011;37372;52.294;5.152;2023-01-19T15:51:23;10.05;;;1.38;;
51288;SDS011;37372;52.294;5.152;2023-01-19T15:53:50;9.18;;;1.50;;
51288;SDS011;37372;52.294;5.152;2023-01-19T15:56:17;6.45;;;1.80;;
51288;SDS011;37372;52.294;5.152;2023-01-19T15:58:45;7.72;;;2.20;;
51288;SDS011;37372;52.294;5.152;2023-01-19T16:01:11;5.78;;;1.77;;
51288;SDS011;37372;52.294;5.152;2023-01-19T16:03:38;6.75;;;1.60;;